Marion, IN

10:56 AM EST on March 01, 2015 (GMT -0500)
Grissom Air Reserve Base | Change Station
CLOSE
Current Station
Airport
Location: Peru,
Elevation: 810 ft
Nearby Weather Stations
Active Advisory: Winter Weather Advisory Active Notice: Local Storm Report

Elev 810 ft 40.65 °N, 86.15 °W | Updated 14 minutes ago

Overcast
Overcast
21 °F
Feels Like 21 °F
N
2
Wind Variable Wind from ESE

Today
High -- | Low -- °F
--% Chance of Precip.
Yesterday
High -- | Low -- °F
Precip. -- in
7:16 AM 6:33 PM
Waxing Gibbous, 86% visible
Pressure 30.35 in
Visibility 1.0 miles
Clouds Overcast 2100 ft
Dew Point 19 °F
Humidity 93%
Rainfall 0.34 in
Snow Depth Not available.
UV 1 out of 12
Pollen .40 out of 12
Air Quality Not available.
Flu Activity Not available.
SPECI KGUS 011542Z 12002KT 1SM R05/4500FT -SN BR OVC021 M06/M07 A3035

More Conditions Fewer Conditions

Pressure 30.35 in
Visibility 1.0 miles
Clouds Overcast 2100 ft
Dew Point 19 °F
Humidity 93%
Rainfall 0.34 in
Snow Depth Not available.
UV 1 out of 12
Pollen .40 out of 12
Air Quality Not available.
Flu Activity Not available.
SPECI KGUS 011542Z 12002KT 1SM R05/4500FT -SN BR OVC021 M06/M07 A3035

More Conditions Fewer Conditions

10-Day Weather Forecast

Almanac

Astronomy

Mar. 01, 2015 Rise Set
Actual Time
Civil Twilight
Nautical Twilight
Astronomical Twilight
Moon
Length of Visible Light
Length of Day
Tomorrow will be .
, % of the Moon is Illuminated

Today's Extremes

State Highs State Lows

Community

WunderPhotos

Upload Photos

1,801,435 photos uploaded!

WunderBlogs® & News

Nearby

Air Quality

  Air Quality AQ Index Pollutant
Not available.

Snow Depth

Station Depth Elevation

Earthquake Activity

City Distance Mag. Time & Date
Minimum magnitude displayed is 2.5.

Coastal Water Temperatures

Place Temperature

Nearby Weather Stations

Winter Weather Advisory
Statement as of 10:18 AM EST on March 01, 2015

... Winter Weather Advisory remains in effect until 7 PM EST this
evening...

Hazardous weather...

* snow will continue into this afternoon. Additional
   accumulations of 1 to 2 inches can be expected with locally
   higher amounts.

* Storm total accumulations will vary from north to south across
   the advisory area with 4 inches north of Highway 24 to locally
   as much as 8 inches across Grant,,,Blackford and Jay
   counties.

Impacts...

* snow covered roads will result in hazardous driving conditions.

Precautionary/preparedness actions...

A Winter Weather Advisory for snow means that periods of snow
will cause primarily travel difficulties. Be prepared for snow
covered roads and limited visibilities... and use caution while
driving.